createdAt,value
2022-10-04T00:04:33.547Z,12.4
2022-10-04T00:09:33.543Z,12.4
2022-10-04T00:14:33.584Z,12.4
2022-10-04T00:19:33.544Z,12.4
2022-10-04T00:24:33.542Z,12.3
2022-10-04T00:29:33.544Z,12.3
2022-10-04T00:34:33.546Z,12.3
2022-10-04T00:39:33.549Z,12.2
2022-10-04T00:44:33.545Z,12.2
2022-10-04T00:49:33.566Z,12.3
2022-10-04T00:54:33.591Z,12.2
2022-10-04T00:59:33.556Z,12.2
2022-10-04T01:04:33.589Z,12.2
2022-10-04T01:09:33.592Z,12.2
2022-10-04T01:14:33.586Z,12.2
2022-10-04T01:19:33.564Z,12.1
2022-10-04T01:24:33.588Z,12.2
2022-10-04T01:29:33.554Z,12.2
2022-10-04T01:34:33.595Z,12.2
2022-10-04T01:39:33.593Z,12.2
2022-10-04T01:44:33.561Z,12.2
2022-10-04T01:49:33.557Z,12.1
2022-10-04T01:54:33.559Z,12.2
2022-10-04T01:59:33.666Z,12.2
2022-10-04T02:04:33.679Z,12.2
2022-10-04T02:09:33.573Z,12.3
2022-10-04T02:14:33.574Z,12.2
2022-10-04T02:19:33.612Z,12.2
2022-10-04T02:24:33.581Z,12.2
2022-10-04T02:29:33.612Z,12.1
2022-10-04T02:34:33.577Z,12.1
2022-10-04T02:39:33.575Z,12.2
2022-10-04T02:44:33.612Z,12.2
2022-10-04T02:49:33.578Z,12.1
2022-10-04T02:54:33.613Z,12.1
2022-10-04T02:59:35.395Z,12.1
2022-10-04T03:04:33.580Z,12.1
2022-10-04T03:09:33.620Z,12.0
2022-10-04T03:14:33.587Z,12.0
2022-10-04T03:19:33.620Z,12.0
2022-10-04T03:24:33.687Z,12.0
2022-10-04T03:29:33.687Z,12.0
2022-10-04T03:34:33.586Z,12.0
2022-10-04T03:39:33.625Z,12.0
2022-10-04T03:44:33.592Z,12.0
2022-10-04T03:49:33.588Z,12.0
2022-10-04T03:54:33.629Z,11.9
2022-10-04T03:59:33.587Z,12.0
2022-10-04T04:04:33.625Z,12.0
2022-10-04T04:09:33.619Z,12.0
2022-10-04T04:14:33.630Z,12.0
2022-10-04T04:19:33.594Z,11.9
2022-10-04T04:24:33.634Z,11.9
2022-10-04T04:29:33.591Z,11.9
2022-10-04T04:34:33.630Z,11.9
2022-10-04T04:39:33.638Z,12.0
2022-10-04T04:44:33.631Z,12.0
2022-10-04T04:49:33.636Z,12.0
2022-10-04T04:54:33.641Z,12.0
2022-10-04T04:59:33.598Z,12.0
2022-10-04T05:04:33.690Z,12.0
2022-10-04T05:09:33.610Z,12.0
2022-10-04T05:14:33.658Z,12.1
2022-10-04T05:19:33.619Z,12.1
2022-10-04T05:24:33.619Z,12.1
2022-10-04T05:29:33.654Z,12.1
2022-10-04T05:34:33.620Z,12.2
2022-10-04T05:39:33.618Z,12.2
2022-10-04T05:44:33.620Z,12.2
2022-10-04T05:49:33.620Z,12.3
2022-10-04T05:54:33.618Z,12.2
2022-10-04T05:59:33.618Z,12.2
2022-10-04T06:04:33.621Z,12.3
2022-10-04T06:09:33.628Z,12.4
2022-10-04T06:14:33.613Z,12.5
2022-10-04T06:19:33.587Z,12.5
2022-10-04T06:24:33.627Z,12.7
2022-10-04T06:29:33.720Z,12.7
2022-10-04T06:34:33.626Z,12.7
2022-10-04T06:39:33.625Z,12.7
2022-10-04T06:44:33.625Z,12.7
2022-10-04T06:49:33.626Z,12.8
2022-10-04T06:54:33.627Z,12.8
2022-10-04T06:59:33.658Z,12.9
2022-10-04T07:04:50.215Z,12.9
2022-10-04T07:09:33.662Z,13.0
2022-10-04T07:14:33.659Z,13.0
2022-10-04T07:19:33.637Z,13.2
2022-10-04T07:24:33.626Z,13.3
2022-10-04T07:29:33.668Z,13.5
2022-10-04T07:34:33.632Z,13.6
2022-10-04T07:39:33.664Z,13.5
2022-10-04T07:44:33.666Z,13.4
2022-10-04T07:49:33.668Z,13.4
2022-10-04T07:54:33.688Z,13.5
2022-10-04T07:59:33.685Z,13.5
2022-10-04T08:04:33.609Z,13.7
2022-10-04T08:09:33.620Z,13.8
2022-10-04T08:14:33.609Z,13.9
2022-10-04T08:19:33.600Z,14.0
2022-10-04T08:24:33.620Z,14.2
2022-10-04T08:29:33.614Z,14.3
2022-10-04T08:34:33.627Z,14.4
2022-10-04T08:39:35.407Z,14.5
2022-10-04T08:44:33.626Z,14.9
2022-10-04T08:49:33.627Z,15.6
2022-10-04T08:54:33.633Z,15.5
2022-10-04T08:59:33.640Z,15.4
2022-10-04T09:04:33.628Z,15.4
2022-10-04T09:09:33.678Z,15.9
2022-10-04T09:14:33.637Z,15.5
2022-10-04T09:19:33.641Z,15.6
2022-10-04T09:24:33.633Z,15.7
2022-10-04T09:29:33.639Z,15.5
2022-10-04T09:34:37.259Z,15.5
2022-10-04T09:39:33.645Z,15.5
2022-10-04T09:44:33.644Z,15.6
2022-10-04T09:49:33.638Z,15.4
2022-10-04T09:54:33.649Z,15.4
2022-10-04T09:59:33.643Z,17.0
2022-10-04T10:04:33.642Z,17.4
2022-10-04T10:09:33.649Z,17.5
2022-10-04T10:14:33.633Z,17.9
2022-10-04T10:19:33.657Z,17.5
2022-10-04T10:24:33.642Z,17.2
2022-10-04T10:29:33.636Z,17.2
2022-10-04T10:34:33.645Z,16.9
2022-10-04T10:39:33.641Z,16.7
2022-10-04T10:44:33.662Z,16.5
2022-10-04T10:49:33.657Z,16.2
2022-10-04T10:54:33.679Z,16.4
2022-10-04T10:59:33.630Z,16.8
2022-10-04T11:04:33.651Z,16.6
2022-10-04T11:09:33.638Z,16.6
2022-10-04T11:14:33.655Z,16.7
2022-10-04T11:19:33.660Z,17.1
2022-10-04T11:24:33.647Z,16.9
2022-10-04T11:29:33.653Z,16.9
2022-10-04T11:34:33.653Z,17.0
2022-10-04T11:39:33.634Z,17.0
2022-10-04T11:44:33.660Z,16.9
2022-10-04T11:49:33.664Z,16.6
2022-10-04T11:54:33.708Z,16.8
2022-10-04T11:59:33.679Z,16.9
2022-10-04T12:04:33.738Z,16.7
2022-10-04T12:09:33.650Z,16.7
2022-10-04T12:14:33.656Z,16.6
2022-10-04T12:19:33.649Z,16.5
2022-10-04T12:24:33.644Z,16.6
2022-10-04T12:29:33.667Z,16.7
2022-10-04T12:34:33.647Z,16.7
2022-10-04T12:39:33.667Z,16.7
2022-10-04T12:44:33.668Z,16.7
2022-10-04T12:49:33.664Z,16.8
2022-10-04T12:54:33.722Z,16.9
2022-10-04T12:59:33.653Z,16.6
2022-10-04T13:04:33.669Z,16.5
2022-10-04T13:09:33.675Z,16.5
2022-10-04T13:14:33.675Z,16.5
2022-10-04T13:19:33.659Z,16.5
2022-10-04T13:24:33.700Z,16.5
2022-10-04T13:29:33.770Z,16.4
2022-10-04T13:34:33.668Z,16.5
2022-10-04T13:39:33.703Z,16.7
2022-10-04T13:44:33.660Z,16.7
2022-10-04T13:49:33.686Z,16.6
2022-10-04T13:54:33.672Z,16.6
2022-10-04T13:59:34.841Z,16.7
2022-10-04T14:04:33.667Z,16.6
2022-10-04T14:09:33.671Z,16.5
2022-10-04T14:14:33.687Z,16.6
2022-10-04T14:19:33.672Z,16.6
2022-10-04T14:24:33.664Z,16.7
2022-10-04T14:29:33.680Z,16.6
2022-10-04T14:34:33.664Z,16.6
2022-10-04T14:39:33.668Z,16.5
2022-10-04T14:44:33.668Z,16.5
2022-10-04T14:49:33.662Z,16.6
2022-10-04T14:54:33.667Z,16.6
2022-10-04T14:59:33.657Z,16.6
2022-10-04T15:04:33.689Z,16.6
2022-10-04T15:09:33.653Z,16.6
2022-10-04T15:14:33.672Z,16.6
2022-10-04T15:19:33.666Z,16.5
2022-10-04T15:24:33.662Z,16.2
2022-10-04T15:29:33.676Z,16.2
2022-10-04T15:34:33.677Z,16.0
2022-10-04T15:39:33.670Z,15.8
2022-10-04T15:44:33.652Z,15.7
2022-10-04T15:49:33.663Z,15.7
2022-10-04T15:54:33.662Z,15.5
2022-10-04T15:59:33.669Z,15.5
2022-10-04T16:04:33.684Z,15.5
2022-10-04T16:09:33.677Z,15.4
2022-10-04T16:14:33.659Z,15.4
2022-10-04T16:19:33.671Z,15.3
2022-10-04T16:24:33.747Z,15.3
2022-10-04T16:29:33.678Z,15.2
2022-10-04T16:34:33.669Z,15.2
2022-10-04T16:39:33.669Z,15.1
2022-10-04T16:44:33.706Z,15.1
2022-10-04T16:49:35.687Z,15.0
2022-10-04T16:54:33.695Z,15.0
2022-10-04T16:59:33.722Z,15.0
2022-10-04T17:04:33.693Z,14.9
2022-10-04T17:09:33.690Z,14.9
2022-10-04T17:14:33.706Z,14.9
2022-10-04T17:19:33.728Z,14.9
2022-10-04T17:24:33.656Z,14.9
2022-10-04T17:29:33.684Z,14.9
2022-10-04T17:34:33.732Z,14.8
2022-10-04T17:39:33.718Z,14.9
2022-10-04T17:44:33.677Z,14.8
2022-10-04T17:49:33.680Z,14.8
2022-10-04T17:54:33.690Z,14.8
2022-10-04T17:59:33.745Z,14.7
2022-10-04T18:04:33.723Z,14.7
2022-10-04T18:09:33.725Z,14.7
2022-10-04T18:14:33.779Z,14.7
2022-10-04T18:19:33.776Z,14.8
2022-10-04T18:24:33.742Z,14.7
2022-10-04T18:29:33.809Z,14.7
2022-10-04T18:34:33.770Z,14.7
2022-10-04T18:39:33.748Z,14.7
2022-10-04T18:44:33.824Z,14.7
2022-10-04T18:49:33.701Z,14.7
2022-10-04T18:54:34.773Z,14.7
2022-10-04T18:59:33.746Z,14.8
2022-10-04T19:04:33.698Z,14.7
2022-10-04T19:09:33.691Z,14.8
2022-10-04T19:14:33.699Z,14.8
2022-10-04T19:19:33.686Z,14.9
2022-10-04T19:24:33.698Z,14.8
2022-10-04T19:29:33.700Z,14.8
2022-10-04T19:34:33.699Z,14.8
2022-10-04T19:39:33.710Z,14.8
2022-10-04T19:44:33.703Z,14.9
2022-10-04T19:49:33.699Z,14.9
2022-10-04T19:54:33.687Z,14.9
2022-10-04T19:59:33.700Z,14.9
2022-10-04T20:04:33.824Z,14.8
2022-10-04T20:09:33.815Z,14.8
2022-10-04T20:14:33.870Z,14.8
2022-10-04T20:19:33.763Z,14.9
2022-10-04T20:24:33.761Z,14.9
2022-10-04T20:29:33.765Z,14.9
2022-10-04T20:34:33.769Z,14.9
2022-10-04T20:39:33.781Z,14.9
2022-10-04T20:44:33.770Z,14.9
2022-10-04T20:49:33.770Z,14.8
2022-10-04T20:54:33.769Z,14.8
2022-10-04T20:59:33.807Z,14.8
2022-10-04T21:04:33.785Z,14.9
2022-10-04T21:09:33.780Z,14.9
2022-10-04T21:14:33.798Z,14.9
2022-10-04T21:19:33.884Z,14.9
2022-10-04T21:24:33.781Z,14.9
2022-10-04T21:29:33.774Z,14.9
2022-10-04T21:34:52.483Z,14.9
2022-10-04T21:39:33.775Z,14.9
2022-10-04T21:44:33.792Z,14.9
2022-10-04T21:49:33.779Z,14.9
2022-10-04T21:54:33.785Z,14.9
2022-10-04T21:59:33.779Z,14.9
2022-10-04T22:04:33.786Z,15.0
2022-10-04T22:09:33.787Z,15.0
2022-10-04T22:14:33.786Z,15.0
2022-10-04T22:19:33.752Z,15.0
2022-10-04T22:24:33.788Z,15.0
2022-10-04T22:29:33.793Z,15.0
2022-10-04T22:34:33.787Z,15.0
2022-10-04T22:39:33.786Z,15.0
2022-10-04T22:44:33.822Z,15.0
2022-10-04T22:49:33.788Z,15.0
2022-10-04T22:54:33.796Z,15.0
2022-10-04T22:59:33.792Z,15.0
2022-10-04T23:04:33.877Z,14.9
2022-10-04T23:09:33.787Z,14.9
2022-10-04T23:14:33.793Z,14.9
2022-10-04T23:19:33.826Z,14.9
2022-10-04T23:24:33.792Z,14.9
2022-10-04T23:29:33.785Z,14.9
2022-10-04T23:34:33.787Z,14.9
2022-10-04T23:39:33.795Z,14.9
2022-10-04T23:44:33.791Z,14.9
2022-10-04T23:49:33.794Z,14.9
2022-10-04T23:54:33.792Z,15.0
2022-10-04T23:59:33.792Z,15.0
